Awosting, New Jersey
Current Conditions -  °F | °C
As of 2:53 PM on Thursday 27 Nov 2014 (Local Time) from KFWN Reporting Station
Broken Clouds Broken Clouds  
Wind Chill: -2°   Ceiling: 2100
Heat Index:   Visibility: 10mi
Dew Point: -3°   Wind: 7mph
Humidity: 73%   Direction: 310°NW
Pressure: 29.98"   Gusts: NA
Location:  41.1652°N, 74.3769°W
Report Text: KFWN 271953Z AUTO 31006KT 10SM BKN021 BKN026 01/M03 A2998 RMK AO2 SLP156 T00111033
Loading
Personal Weather Stations






























Interactive Weather Map New forecast layout! Learn more

10-Day Weather Forecast

Advertisements
Track Severe Weather on mobile